createdAt,value
2018-12-19T00:00:40.056Z,101655.81
2018-12-19T00:03:09.866Z,101661.08
2018-12-19T00:05:39.440Z,101658.19
2018-12-19T00:08:09.902Z,101659.77
2018-12-19T00:10:38.627Z,101654.02
2018-12-19T00:13:10.007Z,101652.33
2018-12-19T00:15:38.870Z,101654.13
2018-12-19T00:18:07.736Z,101653.28
2018-12-19T00:20:36.877Z,101652.59
2018-12-19T00:23:06.037Z,101645.16
2018-12-19T00:25:35.568Z,101658.38
2018-12-19T00:28:04.403Z,101651.68
2018-12-19T00:30:33.380Z,101656.95
2018-12-19T00:33:03.054Z,101659.70
2018-12-19T00:35:31.895Z,101658.38
2018-12-19T00:38:01.516Z,101657.43
2018-12-19T00:40:30.311Z,101658.27
2018-12-19T00:42:59.065Z,101656.34
2018-12-19T00:45:28.584Z,101646.63
2018-12-19T00:47:57.532Z,101646.63
2018-12-19T00:50:27.148Z,101639.20
2018-12-19T00:52:56.282Z,101642.46
2018-12-19T00:55:25.725Z,101640.19
2018-12-19T00:57:55.059Z,101641.40
2018-12-19T01:00:23.795Z,101636.02
2018-12-19T01:02:53.513Z,101631.48
2018-12-19T01:05:23.023Z,101635.91
2018-12-19T01:07:52.389Z,101635.69
2018-12-19T01:10:21.250Z,101641.80
2018-12-19T01:12:50.142Z,101638.91
2018-12-19T01:15:18.898Z,101632.33
2018-12-19T01:17:47.998Z,101632.69
2018-12-19T01:20:17.197Z,101628.15
2018-12-19T01:22:46.070Z,101633.68
2018-12-19T01:25:14.918Z,101638.11
2018-12-19T01:27:43.625Z,101637.02
2018-12-19T01:30:12.489Z,101638.11
2018-12-19T01:32:41.417Z,101632.10
2018-12-19T01:35:10.302Z,101634.63
2018-12-19T01:37:40.004Z,101627.81
2018-12-19T01:40:09.213Z,101632.84
2018-12-19T01:42:38.848Z,101631.08
2018-12-19T01:45:08.325Z,101629.39
2018-12-19T01:47:37.019Z,101629.03
2018-12-19T01:50:06.996Z,101630.45
2018-12-19T01:52:36.480Z,101628.55
2018-12-19T01:55:06.348Z,101627.13
2018-12-19T01:57:35.578Z,101621.48
2018-12-19T02:00:05.215Z,101624.48
2018-12-19T02:02:34.548Z,101619.83
2018-12-19T02:05:06.667Z,101622.57
2018-12-19T02:07:35.460Z,101622.83
2018-12-19T02:10:05.232Z,101619.13
2018-12-19T02:12:33.945Z,101621.88
2018-12-19T02:15:03.182Z,101626.56
2018-12-19T02:17:31.920Z,101622.74
2018-12-19T02:20:02.263Z,101627.66
2018-12-19T02:22:31.072Z,101622.85
2018-12-19T02:24:59.896Z,101618.92
2018-12-19T02:27:28.612Z,101620.60
2018-12-19T02:29:58.344Z,101613.89
2018-12-19T02:32:27.628Z,101607.41
2018-12-19T02:34:56.349Z,101608.00
2018-12-19T02:37:25.573Z,101623.49
2018-12-19T02:39:55.096Z,101622.17
2018-12-19T02:42:23.852Z,101611.98
2018-12-19T02:44:53.010Z,101605.27
2018-12-19T02:47:21.799Z,101600.58
2018-12-19T02:49:50.691Z,101604.66
2018-12-19T02:52:20.265Z,101603.45
2018-12-19T02:54:49.142Z,101597.92
2018-12-19T02:57:18.907Z,101597.80
2018-12-19T02:59:48.789Z,101595.39
2018-12-19T03:02:18.363Z,101600.67
2018-12-19T03:04:47.845Z,101603.56
2018-12-19T03:07:16.682Z,101603.33
2018-12-19T03:09:46.055Z,101603.08
2018-12-19T03:12:14.890Z,101602.27
2018-12-19T03:14:43.611Z,101599.00
2018-12-19T03:17:13.047Z,101606.33
2018-12-19T03:19:41.793Z,101598.52
2018-12-19T03:22:10.647Z,101601.16
2018-12-19T03:24:39.369Z,101602.63
2018-12-19T03:27:08.194Z,101603.11
2018-12-19T03:29:37.402Z,101604.28
2018-12-19T03:32:07.124Z,101607.91
2018-12-19T03:34:36.140Z,101598.53
2018-12-19T03:37:05.390Z,101598.30
2018-12-19T03:39:34.819Z,101593.25
2018-12-19T03:42:03.655Z,101587.61
2018-12-19T03:44:32.407Z,101585.70
2018-12-19T03:47:01.289Z,101579.58
2018-12-19T03:49:30.105Z,101575.63
2018-12-19T03:51:59.541Z,101573.34
2018-12-19T03:54:29.264Z,101568.30
2018-12-19T03:56:58.764Z,101573.69
2018-12-19T03:59:28.061Z,101576.80
2018-12-19T04:01:57.358Z,101574.64
2018-12-19T04:04:27.452Z,101576.19
2018-12-19T04:06:56.168Z,101567.91
2018-12-19T04:09:25.664Z,101567.58
2018-12-19T04:11:54.393Z,101563.48
2018-12-19T04:14:23.077Z,101566.23
2018-12-19T04:16:51.862Z,101557.93
2018-12-19T04:19:20.648Z,101568.03
2018-12-19T04:21:49.597Z,101571.77
2018-12-19T04:24:18.529Z,101570.81
2018-12-19T04:26:47.656Z,101566.73
2018-12-19T04:29:17.085Z,101568.89
2018-12-19T04:31:46.537Z,101567.22
2018-12-19T04:34:16.395Z,101568.17
2018-12-19T04:36:45.908Z,101570.20
2018-12-19T04:39:15.358Z,101569.35
2018-12-19T04:41:44.051Z,101567.30
2018-12-19T04:44:12.897Z,101564.55
2018-12-19T04:46:41.769Z,101567.67
2018-12-19T04:49:10.568Z,101561.44
2018-12-19T04:51:39.999Z,101562.64
2018-12-19T04:54:08.787Z,101558.32
2018-12-19T04:56:38.176Z,101550.52
2018-12-19T04:59:10.674Z,101558.55
2018-12-19T05:01:40.177Z,101553.98
2018-12-19T05:04:12.717Z,101543.20
2018-12-19T05:06:44.528Z,101539.72
2018-12-19T05:09:13.853Z,101540.93
2018-12-19T05:11:42.597Z,101533.96
2018-12-19T05:14:11.365Z,101537.69
2018-12-19T05:16:40.177Z,101522.46
2018-12-19T05:19:09.596Z,101532.16
2018-12-19T05:21:38.385Z,101534.91
2018-12-19T05:24:07.122Z,101534.19
2018-12-19T05:26:36.074Z,101532.03
2018-12-19T05:29:05.667Z,101533.12
2018-12-19T05:31:34.421Z,101522.46
2018-12-19T05:34:04.073Z,101532.64
2018-12-19T05:36:32.856Z,101530.61
2018-12-19T05:39:02.269Z,101531.45
2018-12-19T05:41:30.986Z,101527.63
2018-12-19T05:43:59.692Z,101526.53
2018-12-19T05:46:28.426Z,101529.16
2018-12-19T05:48:57.206Z,101532.43
2018-12-19T05:51:26.891Z,101538.55
2018-12-19T05:53:55.682Z,101532.07
2018-12-19T05:56:25.101Z,101535.19
2018-12-19T05:58:54.422Z,101536.25
2018-12-19T06:01:23.196Z,101532.07
2018-12-19T06:03:52.520Z,101532.42
2018-12-19T06:06:21.607Z,101528.46
2018-12-19T06:08:51.037Z,101525.70
2018-12-19T06:11:19.896Z,101528.11
2018-12-19T06:13:48.862Z,101526.56
2018-12-19T06:16:17.928Z,101525.72
2018-12-19T06:18:46.853Z,101522.59
2018-12-19T06:21:16.196Z,101511.44
2018-12-19T06:23:44.924Z,101515.53
2018-12-19T06:26:13.662Z,101506.14
2018-12-19T06:28:43.396Z,101504.34
2018-12-19T06:31:13.581Z,101503.27
2018-12-19T06:33:43.233Z,101508.66
2018-12-19T06:36:12.025Z,101514.07
2018-12-19T06:38:41.489Z,101511.31
2018-12-19T06:41:10.424Z,101507.97
2018-12-19T06:43:39.927Z,101497.87
2018-12-19T06:46:08.718Z,101503.28
2018-12-19T06:48:37.507Z,101501.72
2018-12-19T06:51:07.218Z,101503.38
2018-12-19T06:53:36.785Z,101499.41
2018-12-19T06:56:06.247Z,101493.08
2018-12-19T06:58:35.198Z,101498.00
2018-12-19T07:01:05.904Z,101494.27
2018-12-19T07:03:35.861Z,101496.42
2018-12-19T07:06:05.929Z,101497.15
2018-12-19T07:08:35.747Z,101499.06
2018-12-19T07:11:05.337Z,101503.50
2018-12-19T07:13:34.189Z,101497.38
2018-12-19T07:16:02.881Z,101503.63
2018-12-19T07:18:32.833Z,101495.59
2018-12-19T07:21:01.743Z,101491.27
2018-12-19T07:23:30.502Z,101483.11
2018-12-19T07:25:59.919Z,101480.83
2018-12-19T07:28:29.453Z,101474.48
2018-12-19T07:30:58.198Z,101482.29
2018-12-19T07:33:27.520Z,101479.53
2018-12-19T07:35:56.253Z,101479.53
2018-12-19T07:38:25.726Z,101479.41
2018-12-19T07:40:54.496Z,101475.69
2018-12-19T07:43:23.285Z,101476.89
2018-12-19T07:45:52.075Z,101476.41
2018-12-19T07:48:21.269Z,101473.41
2018-12-19T07:50:50.224Z,101473.51
2018-12-19T07:53:19.752Z,101477.48
2018-12-19T07:55:49.725Z,101479.64
2018-12-19T07:58:19.265Z,101482.16
2018-12-19T08:00:48.837Z,101475.44
2018-12-19T08:03:18.654Z,101482.77
2018-12-19T08:05:47.965Z,101479.14
2018-12-19T08:08:17.550Z,101486.70
2018-12-19T08:10:52.022Z,101483.22
2018-12-19T08:13:17.475Z,101491.39
2018-12-19T08:15:46.324Z,101484.91
2018-12-19T08:18:15.310Z,101484.78
2018-12-19T08:20:44.185Z,101487.31
2018-12-19T08:23:13.210Z,101483.59
2018-12-19T08:25:42.541Z,101486.83
2018-12-19T08:28:12.146Z,101481.19
2018-12-19T08:30:40.938Z,101481.64
2018-12-19T08:33:09.673Z,101489.09
2018-12-19T08:35:38.462Z,101477.20
2018-12-19T08:38:08.693Z,101480.20
2018-12-19T08:40:37.485Z,101474.44
2018-12-19T08:43:06.334Z,101471.44
2018-12-19T08:45:35.636Z,101467.36
2018-12-19T08:48:04.537Z,101465.68
2018-12-19T08:50:33.348Z,101469.28
2018-12-19T08:53:02.490Z,101462.80
2018-12-19T08:55:31.212Z,101451.75
2018-12-19T08:58:00.502Z,101465.05
2018-12-19T09:00:29.761Z,101468.80
2018-12-19T09:02:59.268Z,101461.20
2018-12-19T09:05:28.565Z,101466.97
2018-12-19T09:07:57.941Z,101464.93
2018-12-19T09:10:26.673Z,101465.38
2018-12-19T09:12:55.424Z,101472.58
2018-12-19T09:15:29.322Z,101458.44
2018-12-19T09:17:58.576Z,101464.05
2018-12-19T09:20:27.513Z,101470.05
2018-12-19T09:22:56.669Z,101464.17
2018-12-19T09:25:25.479Z,101463.56
2018-12-19T09:27:55.136Z,101465.09
2018-12-19T09:30:24.069Z,101452.88
2018-12-19T09:32:52.997Z,101466.41
2018-12-19T09:35:21.872Z,101460.52
2018-12-19T09:37:50.735Z,101464.59
2018-12-19T09:40:20.035Z,101457.71
2018-12-19T09:42:49.788Z,101449.30
2018-12-19T09:45:18.547Z,101456.87
2018-12-19T09:47:47.368Z,101450.98
2018-12-19T09:50:16.277Z,101451.70
2018-12-19T09:52:45.654Z,101445.22
2018-12-19T09:55:14.406Z,101454.47
2018-12-19T09:57:43.777Z,101452.06
2018-12-19T10:00:18.627Z,101440.30
2018-12-19T10:02:49.391Z,101437.89
2018-12-19T10:05:19.181Z,101434.41
2018-12-19T10:07:48.835Z,101432.00
2018-12-19T10:10:18.377Z,101427.80
2018-12-19T10:12:47.307Z,101427.80
2018-12-19T10:15:16.296Z,101419.16
2018-12-19T10:17:45.222Z,101415.83
2018-12-19T10:20:14.823Z,101418.83
2018-12-19T10:22:43.615Z,101421.31
2018-12-19T10:25:13.791Z,101416.03
2018-12-19T10:27:43.522Z,101415.95
2018-12-19T10:30:14.411Z,101406.13
2018-12-19T10:32:44.121Z,101407.20
2018-12-19T10:35:12.992Z,101407.07
2018-12-19T10:37:41.766Z,101395.70
2018-12-19T10:40:12.433Z,101412.84
2018-12-19T10:42:41.301Z,101407.66
2018-12-19T10:45:11.094Z,101404.78
2018-12-19T10:47:39.880Z,101402.16
2018-12-19T10:50:11.385Z,101396.80
2018-12-19T10:52:42.999Z,101399.91
2018-12-19T10:57:44.881Z,101392.47
2018-12-19T11:00:20.025Z,101393.67
2018-12-19T11:02:49.493Z,101386.34
2018-12-19T11:05:18.592Z,101380.47
2018-12-19T11:07:50.065Z,101383.23
2018-12-19T11:10:18.856Z,101389.47
2018-12-19T11:12:47.733Z,101384.79
2018-12-19T11:15:16.520Z,101388.39
2018-12-19T11:17:46.424Z,101384.55
2018-12-19T11:20:15.146Z,101381.31
2018-12-19T11:22:43.893Z,101373.62
2018-12-19T11:25:12.684Z,101372.61
2018-12-19T11:27:41.378Z,101371.40
2018-12-19T11:30:10.955Z,101373.92
2018-12-19T11:32:39.675Z,101371.03
2018-12-19T11:35:08.377Z,101371.86
2018-12-19T11:37:37.224Z,101369.34
2018-12-19T11:40:08.527Z,101354.33
2018-12-19T11:42:37.349Z,101357.22
2018-12-19T11:45:06.536Z,101358.42
2018-12-19T11:47:35.304Z,101357.45
2018-12-19T11:50:04.052Z,101353.01
2018-12-19T11:52:33.377Z,101351.56
2018-12-19T11:55:02.093Z,101337.64
2018-12-19T11:57:31.576Z,101341.60
2018-12-19T12:00:01.161Z,101330.78
2018-12-19T12:02:30.725Z,101327.59
2018-12-19T12:04:59.840Z,101320.99
2018-12-19T12:07:28.783Z,101323.03
2018-12-19T12:09:58.325Z,101316.92
2018-12-19T12:12:27.073Z,101324.59
2018-12-19T12:14:56.234Z,101319.67
2018-12-19T12:17:25.319Z,101310.67
2018-12-19T12:19:54.052Z,101319.29
2018-12-19T12:22:22.785Z,101317.36
2018-12-19T12:24:52.116Z,101317.48
2018-12-19T12:27:20.885Z,101310.39
2018-12-19T12:29:50.265Z,101304.21
2018-12-19T12:32:19.091Z,101299.89
2018-12-19T12:34:48.048Z,101301.37
2018-12-19T12:37:16.864Z,101296.56
2018-12-19T12:39:46.356Z,101289.61
2018-12-19T12:42:15.196Z,101290.45
2018-12-19T12:44:44.163Z,101277.13
2018-12-19T12:47:13.547Z,101272.23
2018-12-19T12:49:42.281Z,101274.48
2018-12-19T12:52:11.322Z,101280.73
2018-12-19T12:54:39.997Z,101269.45
2018-12-19T12:57:09.689Z,101267.65
2018-12-19T12:59:39.444Z,101270.77
2018-12-19T13:02:08.827Z,101268.13
2018-12-19T13:04:37.939Z,101268.00
2018-12-19T13:07:06.707Z,101264.75
2018-12-19T13:09:36.058Z,101260.66
2018-12-19T13:12:04.800Z,101258.14
2018-12-19T13:14:34.606Z,101256.82
2018-12-19T13:17:03.331Z,101243.28
2018-12-19T13:19:32.005Z,101249.02
2018-12-19T13:22:01.857Z,101245.67
2018-12-19T13:24:30.669Z,101244.34
2018-12-19T13:26:59.396Z,101242.80
2018-12-19T13:29:29.110Z,101246.89
2018-12-19T13:31:58.199Z,101241.13
2018-12-19T13:34:26.953Z,101240.57
2018-12-19T13:36:55.939Z,101232.64
2018-12-19T13:39:25.331Z,101235.28
2018-12-19T13:41:54.097Z,101229.42
2018-12-19T13:44:22.833Z,101219.16
2018-12-19T13:46:51.590Z,101226.80
2018-12-19T13:49:20.369Z,101227.09
2018-12-19T13:51:50.195Z,101220.84
2018-12-19T13:54:18.893Z,101221.33
2018-12-19T13:56:48.442Z,101208.62
2018-12-19T13:59:18.412Z,101211.02
2018-12-19T14:01:47.917Z,101209.81
2018-12-19T14:04:17.648Z,101203.34
2018-12-19T14:06:46.351Z,101204.53
2018-12-19T14:09:15.680Z,101190.97
2018-12-19T14:11:44.849Z,101193.97
2018-12-19T14:14:13.536Z,101179.11
2018-12-19T14:16:42.252Z,101188.71
2018-12-19T14:19:11.049Z,101198.80
2018-12-19T14:21:40.442Z,101196.03
2018-12-19T14:24:09.791Z,101191.36
2018-12-19T14:26:38.727Z,101192.16
2018-12-19T14:29:08.020Z,101179.44
2018-12-19T14:31:36.887Z,101177.62
2018-12-19T14:34:05.637Z,101178.34
2018-12-19T14:36:34.396Z,101189.94
2018-12-19T14:41:55.841Z,101191.23
2018-12-19T14:44:24.615Z,101185.82
2018-12-19T14:46:53.337Z,101189.39
2018-12-19T14:49:22.118Z,101193.20
2018-12-19T14:51:51.764Z,101199.32
2018-12-19T14:54:20.598Z,101192.45
2018-12-19T14:56:50.003Z,101197.39
2018-12-19T14:59:19.326Z,101207.34
2018-12-19T15:01:49.427Z,101198.22
2018-12-19T15:04:18.809Z,101203.02
2018-12-19T15:06:47.623Z,101203.99
2018-12-19T15:09:16.917Z,101200.38
2018-12-19T15:11:45.755Z,101197.26
2018-12-19T15:14:14.486Z,101199.06
2018-12-19T15:16:43.796Z,101197.97
2018-12-19T15:19:12.522Z,101194.23
2018-12-19T15:21:41.311Z,101194.80
2018-12-19T15:24:10.826Z,101198.41
2018-12-19T15:26:39.659Z,101203.06
2018-12-19T15:29:09.172Z,101202.44
2018-12-19T15:31:37.928Z,101197.52
2018-12-19T15:34:06.693Z,101197.86
2018-12-19T15:36:35.688Z,101199.41
2018-12-19T15:39:08.267Z,101203.02
2018-12-19T15:41:37.280Z,101203.37
2018-12-19T15:44:06.060Z,101198.09
2018-12-19T15:46:34.900Z,101194.25
2018-12-19T15:49:03.673Z,101198.92
2018-12-19T15:51:32.967Z,101189.94
2018-12-19T15:54:01.752Z,101186.94
2018-12-19T15:56:31.306Z,101191.61
2018-12-19T15:59:01.230Z,101189.67
2018-12-19T16:01:29.965Z,101194.34
2018-12-19T16:03:59.298Z,101195.53
2018-12-19T16:06:28.740Z,101187.61
2018-12-19T16:08:57.958Z,101185.80
2018-12-19T16:11:26.641Z,101192.11
2018-12-19T16:13:55.688Z,101193.12
2018-12-19T16:16:24.643Z,101179.09
2018-12-19T16:18:53.419Z,101184.05
2018-12-19T16:21:22.223Z,101179.95
2018-12-19T16:23:52.130Z,101182.34
2018-12-19T16:26:20.925Z,101180.39
2018-12-19T16:28:50.664Z,101182.42
2018-12-19T16:31:19.452Z,101177.48
2018-12-19T16:33:48.338Z,101177.33
2018-12-19T16:36:17.241Z,101170.58
2018-12-19T16:38:46.446Z,101165.16
2018-12-19T16:41:15.200Z,101163.35
2018-12-19T16:43:44.028Z,101172.61
2018-12-19T16:46:13.490Z,101167.54
2018-12-19T16:48:42.385Z,101176.66
2018-12-19T16:51:11.122Z,101161.50
2018-12-19T16:53:40.381Z,101157.88
2018-12-19T16:56:09.662Z,101162.39
2018-12-19T16:58:38.388Z,101160.45
2018-12-19T17:01:07.739Z,101157.80
2018-12-19T17:03:37.425Z,101153.56
2018-12-19T17:06:06.266Z,101158.72
2018-12-19T17:08:36.042Z,101150.79
2018-12-19T17:11:04.798Z,101141.05
2018-12-19T17:13:33.525Z,101143.69
2018-12-19T17:16:02.280Z,101136.02
2018-12-19T17:18:31.132Z,101129.81
2018-12-19T17:21:00.016Z,101126.28
2018-12-19T17:23:29.894Z,101126.90
2018-12-19T17:25:58.682Z,101127.59
2018-12-19T17:28:28.082Z,101125.92
2018-12-19T17:30:56.883Z,101121.13
2018-12-19T17:33:25.617Z,101117.02
2018-12-19T17:35:54.988Z,101121.69
2018-12-19T17:38:24.312Z,101113.94
2018-12-19T17:40:53.103Z,101121.74
2018-12-19T17:43:21.854Z,101117.16
2018-12-19T17:45:51.769Z,101112.43
2018-12-19T17:48:20.592Z,101119.61
2018-12-19T17:50:49.497Z,101114.19
2018-12-19T17:53:18.949Z,101117.50
2018-12-19T17:58:39.503Z,101112.03
2018-12-19T18:01:08.908Z,101107.89
2018-12-19T18:03:38.322Z,101114.37
2018-12-19T18:06:07.022Z,101099.77
2018-12-19T18:08:36.550Z,101107.27
2018-12-19T18:11:05.368Z,101101.84
2018-12-19T18:13:34.788Z,101102.67
2018-12-19T18:16:03.528Z,101098.84
2018-12-19T18:18:32.477Z,101100.79
2018-12-19T18:21:01.746Z,101109.21
2018-12-19T18:23:32.166Z,101109.56
2018-12-19T18:26:00.884Z,101099.81
2018-12-19T18:28:30.336Z,101103.30
2018-12-19T18:30:59.113Z,101102.81
2018-12-19T18:33:27.862Z,101096.20
2018-12-19T18:38:42.880Z,101104.92
2018-12-19T18:41:11.572Z,101103.25
2018-12-19T18:43:40.330Z,101111.54
2018-12-19T18:46:09.635Z,101106.73
2018-12-19T18:48:38.471Z,101104.76
2018-12-19T18:51:07.321Z,101091.34
2018-12-19T18:53:39.242Z,101102.06
2018-12-19T18:56:09.331Z,101096.42
2018-12-19T18:58:39.095Z,101096.21
2018-12-19T19:01:09.091Z,101101.28
2018-12-19T19:06:25.356Z,101102.34
2018-12-19T19:08:54.651Z,101102.69
2018-12-19T19:11:23.453Z,101097.75
2018-12-19T19:13:52.880Z,101090.64
2018-12-19T19:16:21.701Z,101092.11
2018-12-19T19:18:51.236Z,101091.13
2018-12-19T19:21:21.488Z,101102.41
2018-12-19T19:23:51.282Z,101101.09
2018-12-19T19:26:20.250Z,101100.26
2018-12-19T19:28:49.835Z,101095.45
2018-12-19T19:31:18.709Z,101096.64
2018-12-19T19:33:47.492Z,101091.88
2018-12-19T19:36:16.256Z,101096.90
2018-12-19T19:38:45.580Z,101090.28
2018-12-19T19:41:14.450Z,101091.26
2018-12-19T19:43:43.205Z,101090.56
2018-12-19T19:46:13.404Z,101087.73
2018-12-19T19:48:42.321Z,101088.40
2018-12-19T19:51:16.795Z,101091.26
2018-12-19T19:53:42.926Z,101091.13
2018-12-19T19:56:12.495Z,101092.80
2018-12-19T19:58:42.263Z,101091.20
2018-12-19T20:01:11.468Z,101084.51
2018-12-19T20:03:40.798Z,101102.27
2018-12-19T20:06:09.560Z,101097.47
2018-12-19T20:08:39.176Z,101099.62
2018-12-19T20:11:08.189Z,101092.58
2018-12-19T20:13:37.452Z,101090.36
2018-12-19T20:16:06.544Z,101092.17
2018-12-19T20:18:35.334Z,101091.06
2018-12-19T20:21:04.764Z,101092.66
2018-12-19T20:23:34.292Z,101084.02
2018-12-19T20:26:03.743Z,101093.91
2018-12-19T20:28:33.065Z,101087.21
2018-12-19T20:31:01.898Z,101091.84
2018-12-19T20:33:30.590Z,101091.13
2018-12-19T20:35:59.692Z,101093.22
2018-12-19T20:38:29.158Z,101096.12
2018-12-19T20:40:57.951Z,101096.83
2018-12-19T20:43:26.706Z,101099.34
2018-12-19T20:45:56.166Z,101101.23
2018-12-19T20:48:24.916Z,101098.94
2018-12-19T20:50:54.771Z,101094.13
2018-12-19T20:53:23.950Z,101096.41
2018-12-19T20:55:53.371Z,101094.61
2018-12-19T20:58:23.305Z,101091.34
2018-12-19T21:00:52.854Z,101088.55
2018-12-19T21:03:22.467Z,101088.91
2018-12-19T21:05:51.978Z,101091.11
2018-12-19T21:08:21.419Z,101085.67
2018-12-19T21:10:50.352Z,101084.98
2018-12-19T21:13:19.853Z,101085.47
2018-12-19T21:15:48.657Z,101080.83
2018-12-19T21:18:23.577Z,101087.14
2018-12-19T21:20:52.462Z,101087.14
2018-12-19T21:23:21.840Z,101084.49
2018-12-19T21:25:51.211Z,101084.98
2018-12-19T21:28:20.601Z,101091.94
2018-12-19T21:30:49.492Z,101087.97
2018-12-19T21:33:18.395Z,101093.75
2018-12-19T21:35:47.227Z,101091.81
2018-12-19T21:38:16.775Z,101088.67
2018-12-19T21:40:45.621Z,101087.34
2018-12-19T21:43:14.320Z,101087.08
2018-12-19T21:45:44.368Z,101083.87
2018-12-19T21:48:13.189Z,101091.19
2018-12-19T21:50:41.973Z,101090.56
2018-12-19T21:53:11.351Z,101099.20
2018-12-19T21:55:41.654Z,101096.77
2018-12-19T21:58:10.537Z,101098.41
2018-12-19T22:00:42.006Z,101097.25
2018-12-19T22:03:11.482Z,101096.27
2018-12-19T22:05:40.646Z,101092.58
2018-12-19T22:08:10.018Z,101092.30
2018-12-19T22:10:38.821Z,101096.12
2018-12-19T22:13:07.563Z,101090.13
2018-12-19T22:15:36.390Z,101089.16
2018-12-19T22:18:10.470Z,101088.19
2018-12-19T22:20:39.330Z,101086.38
2018-12-19T22:23:08.707Z,101081.92
2018-12-19T22:25:38.589Z,101084.56
2018-12-19T22:28:07.956Z,101079.62
2018-12-19T22:30:36.732Z,101086.52
2018-12-19T22:33:05.560Z,101085.67
2018-12-19T22:35:34.361Z,101081.70
2018-12-19T22:38:03.103Z,101082.20
2018-12-19T22:40:32.749Z,101067.43
2018-12-19T22:43:01.493Z,101079.86
2018-12-19T22:45:30.994Z,101081.31
2018-12-19T22:47:59.727Z,101082.29
2018-12-19T22:50:29.142Z,101087.98
2018-12-19T22:52:59.790Z,101084.02
2018-12-19T22:55:29.530Z,101079.56
2018-12-19T22:57:58.321Z,101081.86
2018-12-19T23:00:29.648Z,101082.34
2018-12-19T23:03:05.899Z,101074.41
2018-12-19T23:05:39.818Z,101072.73
2018-12-19T23:08:09.489Z,101080.19
2018-12-19T23:10:38.276Z,101071.06
2018-12-19T23:13:07.976Z,101076.70
2018-12-19T23:15:37.276Z,101081.16
2018-12-19T23:18:11.297Z,101081.16
2018-12-19T23:20:40.235Z,101075.03
2018-12-19T23:23:10.416Z,101078.03
2018-12-19T23:25:39.265Z,101077.05
2018-12-19T23:28:09.300Z,101080.89
2018-12-19T23:30:38.107Z,101079.08
2018-12-19T23:33:06.879Z,101076.92
2018-12-19T23:35:36.171Z,101077.41
2018-12-19T23:38:05.953Z,101073.78
2018-12-19T23:40:35.248Z,101067.66
2018-12-19T23:43:04.349Z,101070.17
2018-12-19T23:45:33.721Z,101073.78
2018-12-19T23:48:02.886Z,101072.81
2018-12-19T23:50:32.442Z,101072.47
2018-12-19T23:53:02.070Z,101077.05
2018-12-19T23:55:31.481Z,101076.09
2018-12-19T23:58:00.510Z,101078.11
